Time;durP1;ratioP1;P1;durP2;ratioP2;P2;SDS_P1;SDS_P2;PMS_P1;PMS_P2;Temp;Humidity;BMP_temperature;BMP_pressure;BME280_temperature;BME280_humidity;BME280_pressure;Samples;Min_cycle;Max_cycle;Signal;HPM_P1;HPM_P2
2021/04/17 00:01:03;;;;;;;11.50;5.93;;;9.40;74.00;;;;;;4940046;28;22387;-63
2021/04/17 00:03:29;;;;;;;10.07;3.65;;;9.80;74.20;;;;;;4928606;28;20083;-63
2021/04/17 00:05:55;;;;;;;10.80;4.95;;;10.10;71.40;;;;;;4954426;28;20039;-62
2021/04/17 00:08:21;;;;;;;9.05;2.60;;;10.20;72.30;;;;;;4942485;28;20062;-63
2021/04/17 00:10:47;;;;;;;7.30;2.40;;;10.40;70.20;;;;;;4937232;28;20036;-62
2021/04/17 00:13:13;;;;;;;9.82;4.93;;;10.50;69.90;;;;;;4940181;28;20051;-62
2021/04/17 00:15:38;;;;;;;15.05;6.88;;;10.40;69.00;;;;;;4940579;28;20547;-62
2021/04/17 00:18:04;;;;;;;8.38;2.88;;;10.40;70.90;;;;;;4941078;28;20034;-62
2021/04/17 00:20:30;;;;;;;5.55;2.50;;;10.40;69.60;;;;;;4922210;28;20106;-62
2021/04/17 00:22:56;;;;;;;9.23;4.18;;;10.30;68.40;;;;;;4939488;28;20040;-62
2021/04/17 00:25:22;;;;;;;14.00;7.05;;;10.20;69.30;;;;;;4939419;28;20130;-62
2021/04/17 00:27:48;;;;;;;14.00;6.32;;;10.30;71.00;;;;;;4941826;28;20985;-62
2021/04/17 00:30:14;;;;;;;12.52;6.03;;;10.40;71.10;;;;;;4941605;28;20038;-62
2021/04/17 00:32:40;;;;;;;8.98;3.60;;;10.50;70.70;;;;;;4953141;28;20045;-62
2021/04/17 00:35:06;;;;;;;14.73;5.78;;;10.40;69.80;;;;;;4940452;28;20111;-62
2021/04/17 00:37:32;;;;;;;10.07;2.53;;;10.40;70.50;;;;;;4939672;28;20051;-62
2021/04/17 00:39:58;;;;;;;17.38;9.15;;;10.50;69.60;;;;;;4954059;28;20135;-62
2021/04/17 00:42:24;;;;;;;14.90;8.95;;;10.60;70.70;;;;;;4938790;28;20040;-62
2021/04/17 00:44:50;;;;;;;16.23;8.82;;;10.90;71.60;;;;;;4940781;28;20145;-62
2021/04/17 00:47:16;;;;;;;8.98;4.65;;;11.40;71.80;;;;;;4941759;28;20043;-62
2021/04/17 00:49:42;;;;;;;11.48;6.50;;;11.70;70.20;;;;;;4941800;28;20040;-62
2021/04/17 00:52:08;;;;;;;13.02;6.95;;;12.00;69.80;;;;;;4940461;28;20032;-62
2021/04/17 00:54:35;;;;;;;12.80;6.10;;;12.20;69.40;;;;;;4940459;28;20046;-62
2021/04/17 00:57:00;;;;;;;13.13;6.05;;;12.50;68.50;;;;;;4938006;28;20177;-62
2021/04/17 00:59:26;;;;;;;18.10;8.32;;;12.70;67.00;;;;;;4940116;28;20118;-63
2021/04/17 01:01:52;;;;;;;13.38;7.72;;;12.80;67.90;;;;;;4939171;28;20060;-62
2021/04/17 01:04:27;;;;;;;9.70;4.70;;;13.00;67.90;;;;;;4940314;28;20122;-63
2021/04/17 01:07:04;;;;;;;12.70;6.63;;;13.20;65.50;;;;;;4941549;28;20492;-62
2021/04/17 01:09:55;;;;;;;11.70;5.88;;;13.20;65.60;;;;;;4939763;28;20102;-62
2021/04/17 01:12:31;;;;;;;13.63;6.38;;;13.10;64.60;;;;;;4939971;28;20043;-62
2021/04/17 01:14:57;;;;;;;13.35;4.00;;;13.10;65.90;;;;;;4953170;28;20404;-62
2021/04/17 01:17:25;;;;;;;12.75;7.65;;;13.00;65.20;;;;;;4940131;28;20067;-62
2021/04/17 01:20:05;;;;;;;13.75;7.68;;;13.10;65.80;;;;;;4938793;28;20126;-63
2021/04/17 01:22:32;;;;;;;10.93;6.60;;;13.30;66.50;;;;;;4938896;28;20035;-62
2021/04/17 01:25:14;;;;;;;11.45;7.10;;;13.40;65.40;;;;;;4940309;28;20054;-62
2021/04/17 01:28:00;;;;;;;10.80;5.55;;;13.50;65.60;;;;;;4940287;28;20494;-63
2021/04/17 01:30:26;;;;;;;11.13;5.70;;;13.70;65.00;;;;;;4939336;28;20035;-62
2021/04/17 01:32:53;;;;;;;11.45;6.95;;;13.80;63.50;;;;;;4939614;28;20681;-62
2021/04/17 01:35:20;;;;;;;12.85;7.43;;;13.80;64.00;;;;;;4939441;28;20055;-62
2021/04/17 01:37:52;;;;;;;10.30;6.63;;;13.90;64.20;;;;;;4941240;28;20119;-62
2021/04/17 01:40:23;;;;;;;10.75;5.70;;;14.00;64.20;;;;;;4940194;28;20043;-62
2021/04/17 01:42:51;;;;;;;11.60;6.03;;;14.00;63.10;;;;;;4940821;28;20035;-62
2021/04/17 01:45:21;;;;;;;11.05;5.88;;;14.00;63.20;;;;;;4941873;28;20031;-62
2021/04/17 01:47:49;;;;;;;12.50;6.72;;;14.00;63.10;;;;;;4944773;28;20138;-62
2021/04/17 01:50:17;;;;;;;10.88;6.15;;;14.10;63.20;;;;;;4941679;28;20039;-62
2021/04/17 01:52:46;;;;;;;11.07;6.57;;;14.20;63.60;;;;;;4942359;28;20039;-62
2021/04/17 01:55:14;;;;;;;10.40;6.47;;;14.30;62.90;;;;;;4942508;28;20055;-63
2021/04/17 01:57:41;;;;;;;9.93;5.78;;;14.50;62.40;;;;;;4943906;28;20376;-62
2021/04/17 02:00:08;;;;;;;9.35;5.72;;;14.70;61.90;;;;;;4947181;28;20040;-64
2021/04/17 02:02:35;;;;;;;16.67;6.70;;;14.90;61.60;;;;;;4943562;28;20047;-62
2021/04/17 02:05:01;;;;;;;12.43;6.68;;;15.10;61.40;;;;;;4944379;28;20031;-63
2021/04/17 02:07:27;;;;;;;10.07;5.53;;;15.20;61.40;;;;;;4957559;28;20031;-63
2021/04/17 02:09:53;;;;;;;9.68;6.03;;;15.20;61.20;;;;;;4942298;28;20046;-63
2021/04/17 02:12:19;;;;;;;11.55;6.43;;;15.30;61.20;;;;;;4939988;28;20117;-62
2021/04/17 02:14:45;;;;;;;9.60;5.97;;;15.30;61.00;;;;;;4942765;28;20487;-62
2021/04/17 02:17:28;;;;;;;9.98;6.03;;;15.30;61.30;;;;;;4942343;28;20043;-63
2021/04/17 02:20:09;;;;;;;11.35;6.10;;;15.30;60.50;;;;;;4941217;28;20091;-62
2021/04/17 02:22:36;;;;;;;8.48;4.28;;;15.30;60.50;;;;;;4941713;28;20452;-63
2021/04/17 02:25:04;;;;;;;11.55;6.03;;;15.20;59.70;;;;;;4943121;28;20203;-62
2021/04/17 02:27:31;;;;;;;8.95;5.38;;;15.10;59.80;;;;;;4943655;28;20553;-62
2021/04/17 02:29:58;;;;;;;10.75;5.45;;;15.00;60.10;;;;;;4942025;28;20794;-62
2021/04/17 02:32:24;;;;;;;9.77;4.75;;;14.90;60.10;;;;;;4942357;28;20074;-61
2021/04/17 02:34:51;;;;;;;8.63;3.08;;;14.90;59.30;;;;;;4946222;28;20043;-62
2021/04/17 02:37:17;;;;;;;9.88;5.13;;;14.60;58.90;;;;;;4942906;28;21184;-62
2021/04/17 02:39:43;;;;;;;13.35;4.90;;;14.20;60.30;;;;;;4940335;28;20480;-62
2021/04/17 02:42:12;;;;;;;12.32;4.57;;;14.00;61.10;;;;;;4941110;28;20372;-62
2021/04/17 02:44:38;;;;;;;9.23;4.95;;;13.90;61.70;;;;;;4942506;28;20505;-62
2021/04/17 02:47:04;;;;;;;9.57;2.83;;;13.90;61.80;;;;;;4943055;28;20388;-62
2021/04/17 02:49:30;;;;;;;10.32;4.75;;;13.80;60.80;;;;;;4942224;28;20046;-62
2021/04/17 02:51:56;;;;;;;10.50;5.85;;;13.50;61.80;;;;;;4941753;28;20053;-62
2021/04/17 02:54:22;;;;;;;11.20;4.38;;;13.50;63.10;;;;;;4941454;28;20047;-62
2021/04/17 02:56:48;;;;;;;9.77;4.70;;;13.60;62.70;;;;;;4940216;28;20392;-61
2021/04/17 02:59:13;;;;;;;7.38;3.95;;;13.60;62.50;;;;;;4955498;28;20814;-62
2021/04/17 03:01:40;;;;;;;10.23;4.75;;;13.60;62.50;;;;;;4940577;28;20062;-62
2021/04/17 03:04:06;;;;;;;9.38;4.03;;;13.50;63.40;;;;;;4942189;28;20498;-64
2021/04/17 03:06:32;;;;;;;12.35;4.80;;;13.50;63.50;;;;;;4942055;28;20130;-61
2021/04/17 03:08:58;;;;;;;10.60;4.65;;;13.40;63.00;;;;;;4942046;28;20032;-62
2021/04/17 03:11:24;;;;;;;9.73;3.97;;;13.30;63.00;;;;;;4954910;28;20066;-62
2021/04/17 03:13:50;;;;;;;9.35;3.75;;;13.30;63.20;;;;;;4941336;28;20403;-62
2021/04/17 03:16:16;;;;;;;8.43;3.92;;;13.40;63.10;;;;;;4941438;28;20035;-63
2021/04/17 03:18:42;;;;;;;8.30;3.80;;;13.30;63.30;;;;;;4941553;28;20039;-63
2021/04/17 03:21:07;;;;;;;10.43;4.60;;;13.00;63.30;;;;;;4941447;28;20448;-63
2021/04/17 03:23:33;;;;;;;8.55;3.47;;;13.00;64.50;;;;;;4940930;28;20094;-63
2021/04/17 03:25:59;;;;;;;9.20;2.90;;;12.90;63.90;;;;;;4941612;28;20035;-63
2021/04/17 03:28:25;;;;;;;9.00;3.92;;;12.80;63.30;;;;;;4942734;28;20036;-63
2021/04/17 03:30:50;;;;;;;13.25;4.25;;;12.90;63.70;;;;;;4940268;28;20031;-63
2021/04/17 03:33:16;;;;;;;7.45;3.53;;;12.90;63.30;;;;;;4939147;28;20149;-63
2021/04/17 03:35:42;;;;;;;12.90;4.45;;;13.00;63.30;;;;;;4954480;28;20062;-63
2021/04/17 03:38:08;;;;;;;8.50;3.63;;;13.10;63.80;;;;;;4941199;28;20126;-63
2021/04/17 03:40:34;;;;;;;6.43;3.50;;;13.20;63.40;;;;;;4939014;28;20063;-63
2021/04/17 03:43:00;;;;;;;9.10;4.05;;;13.30;63.60;;;;;;4940333;28;20065;-64
2021/04/17 03:45:26;;;;;;;14.30;3.40;;;13.30;63.00;;;;;;4938811;28;20039;-63
2021/04/17 03:47:52;;;;;;;7.43;3.63;;;13.10;62.70;;;;;;4956333;28;20043;-63
2021/04/17 03:50:18;;;;;;;7.43;3.63;;;13.00;63.50;;;;;;4940193;28;20063;-63
2021/04/17 03:52:45;;;;;;;10.60;4.05;;;12.90;63.90;;;;;;4940739;28;20119;-63
2021/04/17 03:55:13;;;;;;;10.45;4.32;;;12.80;64.40;;;;;;4940824;28;20078;-63
2021/04/17 03:57:59;;;;;;;9.18;4.32;;;12.90;65.20;;;;;;4952779;28;20138;-63
2021/04/17 04:00:25;;;;;;;10.10;4.10;;;13.10;65.10;;;;;;4940180;28;20046;-63
2021/04/17 04:02:51;;;;;;;9.95;4.03;;;13.00;64.50;;;;;;4939669;28;21036;-63
2021/04/17 04:05:17;;;;;;;9.55;3.85;;;12.90;64.60;;;;;;4953526;28;20057;-63
2021/04/17 04:07:43;;;;;;;12.18;3.75;;;12.90;64.40;;;;;;4941237;28;20047;-63
2021/04/17 04:10:10;;;;;;;11.48;3.85;;;12.60;64.30;;;;;;4940136;28;20074;-63
2021/04/17 04:12:36;;;;;;;12.00;3.75;;;12.30;65.60;;;;;;4953209;28;20935;-63
2021/04/17 04:15:03;;;;;;;15.98;3.55;;;12.20;66.20;;;;;;4953837;28;20089;-63
2021/04/17 04:17:29;;;;;;;10.77;3.55;;;12.20;65.60;;;;;;4953493;28;20113;-63
2021/04/17 04:19:54;;;;;;;18.33;4.18;;;12.20;65.80;;;;;;4953953;28;20479;-63
2021/04/17 04:22:20;;;;;;;9.15;3.95;;;12.20;65.10;;;;;;4939219;28;20044;-63
2021/04/17 04:24:46;;;;;;;13.07;3.88;;;12.10;65.10;;;;;;4940569;28;20027;-63
2021/04/17 04:27:12;;;;;;;10.60;4.20;;;12.00;65.30;;;;;;4939658;28;20113;-63
2021/04/17 04:29:38;;;;;;;10.82;4.28;;;11.90;66.60;;;;;;4938715;28;20063;-63
2021/04/17 04:32:04;;;;;;;12.10;4.22;;;12.00;67.10;;;;;;4940308;28;20070;-63
2021/04/17 04:34:30;;;;;;;15.23;4.32;;;12.10;67.30;;;;;;4939829;28;20039;-63
2021/04/17 04:36:56;;;;;;;14.35;4.30;;;12.30;66.00;;;;;;4940152;28;20069;-63
2021/04/17 04:39:22;;;;;;;12.68;3.70;;;12.40;65.80;;;;;;4940493;28;20069;-64
2021/04/17 04:41:47;;;;;;;14.05;4.40;;;12.20;64.30;;;;;;4939161;28;20044;-63
2021/04/17 04:44:14;;;;;;;17.42;3.28;;;11.70;64.50;;;;;;4940251;28;20039;-63
2021/04/17 04:46:40;;;;;;;22.52;4.70;;;11.30;65.20;;;;;;4940674;28;20047;-64
2021/04/17 04:49:05;;;;;;;17.60;3.63;;;10.90;66.10;;;;;;4954568;28;20035;-63
2021/04/17 04:51:31;;;;;;;16.92;4.43;;;10.50;67.10;;;;;;4939833;28;20043;-63
2021/04/17 04:53:57;;;;;;;21.05;4.57;;;10.10;67.90;;;;;;4940413;28;20051;-63
2021/04/17 04:56:22;;;;;;;21.00;5.10;;;9.70;68.80;;;;;;4936737;28;20036;-64
2021/04/17 04:58:50;;;;;;;17.85;4.20;;;9.50;69.50;;;;;;4940290;28;20487;-65
2021/04/17 05:01:15;;;;;;;20.63;5.18;;;9.30;70.20;;;;;;4939469;28;20086;-63
2021/04/17 05:03:41;;;;;;;21.20;3.85;;;9.20;70.80;;;;;;4939963;28;21970;-63
2021/04/17 05:06:07;;;;;;;18.65;4.53;;;9.10;71.20;;;;;;4940295;28;20472;-63
2021/04/17 05:08:33;;;;;;;17.92;4.47;;;9.00;71.50;;;;;;4942099;28;20036;-63
2021/04/17 05:10:58;;;;;;;19.67;4.72;;;8.90;71.90;;;;;;4939642;28;20036;-63
2021/04/17 05:13:24;;;;;;;22.45;5.75;;;8.90;72.20;;;;;;4939698;28;20517;-63
2021/04/17 05:15:50;;;;;;;17.85;4.30;;;8.80;72.40;;;;;;4939886;28;20035;-63
2021/04/17 05:18:16;;;;;;;24.90;4.65;;;8.80;72.60;;;;;;4941873;28;20176;-63
2021/04/17 05:20:42;;;;;;;23.42;4.28;;;8.70;72.90;;;;;;4943583;28;20102;-63
2021/04/17 05:23:07;;;;;;;17.85;4.68;;;8.70;73.00;;;;;;4942593;28;20039;-63
2021/04/17 05:25:33;;;;;;;20.25;4.90;;;8.70;73.20;;;;;;4943456;28;20168;-63
2021/04/17 05:27:59;;;;;;;16.73;4.40;;;8.60;73.50;;;;;;4943479;28;20063;-63
2021/04/17 05:30:25;;;;;;;20.73;3.30;;;8.60;74.20;;;;;;4941811;28;20040;-63
2021/04/17 05:32:50;;;;;;;18.35;4.60;;;8.50;73.80;;;;;;4944444;28;20069;-63
2021/04/17 05:35:16;;;;;;;15.80;4.30;;;8.50;74.00;;;;;;4943321;28;20039;-62
2021/04/17 05:37:42;;;;;;;16.75;3.88;;;8.50;74.10;;;;;;4957731;28;20047;-62
2021/04/17 05:40:08;;;;;;;18.45;4.22;;;8.50;74.40;;;;;;4942109;28;20372;-63
2021/04/17 05:42:34;;;;;;;16.90;4.47;;;8.50;74.50;;;;;;4940429;28;20112;-63
2021/04/17 05:45:01;;;;;;;19.83;3.90;;;8.50;74.80;;;;;;4958306;28;20050;-63
2021/04/17 05:47:26;;;;;;;19.23;5.13;;;8.50;75.10;;;;;;4943368;28;20119;-61
2021/04/17 05:49:52;;;;;;;19.90;5.72;;;8.50;75.10;;;;;;4939515;28;20515;-62
2021/04/17 05:52:18;;;;;;;17.80;4.47;;;8.50;75.20;;;;;;4943845;28;20046;-62
2021/04/17 05:54:43;;;;;;;23.42;4.85;;;8.50;75.30;;;;;;4942915;28;20479;-63
2021/04/17 05:57:09;;;;;;;23.05;5.35;;;8.60;75.40;;;;;;4942347;28;20036;-63
2021/04/17 05:59:35;;;;;;;18.52;4.38;;;8.70;75.30;;;;;;4942738;28;20039;-63
2021/04/17 06:02:01;;;;;;;19.50;4.78;;;8.70;75.40;;;;;;4942807;28;20059;-63
2021/04/17 06:04:27;;;;;;;18.50;5.07;;;8.70;75.40;;;;;;4957501;28;20054;-63
2021/04/17 06:06:52;;;;;;;23.10;4.97;;;8.80;75.40;;;;;;4954833;28;20070;-63
2021/04/17 06:09:19;;;;;;;27.40;4.88;;;8.80;75.40;;;;;;4942008;28;20061;-62
2021/04/17 06:11:45;;;;;;;19.48;4.57;;;8.90;75.40;;;;;;4941771;28;20040;-62
2021/04/17 06:14:11;;;;;;;17.17;4.47;;;8.90;75.20;;;;;;4956619;28;20098;-63
2021/04/17 06:16:37;;;;;;;18.17;4.60;;;8.90;74.90;;;;;;4942624;28;20074;-63
2021/04/17 06:19:03;;;;;;;19.42;6.03;;;8.90;74.90;;;;;;4941970;28;20047;-63
2021/04/17 06:21:28;;;;;;;17.40;4.60;;;9.00;75.00;;;;;;4940802;28;20051;-64
2021/04/17 06:23:54;;;;;;;15.75;4.03;;;8.90;75.00;;;;;;4944426;28;20631;-63
2021/04/17 06:26:21;;;;;;;16.48;4.28;;;9.00;75.30;;;;;;4941581;28;20515;-63
2021/04/17 06:28:46;;;;;;;17.30;4.10;;;9.10;75.30;;;;;;4941784;28;20059;-63
2021/04/17 06:31:12;;;;;;;22.52;4.50;;;9.10;75.20;;;;;;4941349;28;20067;-63
2021/04/17 06:33:38;;;;;;;16.50;4.63;;;9.20;75.10;;;;;;4942206;28;20066;-63
2021/04/17 06:36:06;;;;;;;15.95;4.65;;;9.40;75.10;;;;;;4941321;28;20054;-63
2021/04/17 06:38:32;;;;;;;20.20;4.47;;;9.50;74.70;;;;;;4939412;28;20471;-63
2021/04/17 06:40:58;;;;;;;15.93;3.90;;;9.80;74.40;;;;;;4942293;28;20095;-63
2021/04/17 06:43:27;;;;;;;17.52;5.38;;;10.00;73.70;;;;;;4954825;28;20047;-63
2021/04/17 06:45:55;;;;;;;20.60;4.93;;;10.20;73.10;;;;;;4954952;28;20934;-63
2021/04/17 06:48:23;;;;;;;19.52;4.60;;;10.50;72.50;;;;;;4955545;28;20048;-65
2021/04/17 06:50:50;;;;;;;12.20;4.53;;;10.70;71.60;;;;;;4941506;28;20039;-67
2021/04/17 06:53:18;;;;;;;19.10;4.68;;;11.00;70.80;;;;;;4941707;28;20035;-63
2021/04/17 06:55:51;;;;;;;21.08;4.80;;;11.30;69.90;;;;;;4940015;28;20635;-64
2021/04/17 06:58:18;;;;;;;15.25;3.78;;;11.50;68.80;;;;;;4941367;28;20039;-64
2021/04/17 07:00:46;;;;;;;21.20;5.85;;;11.70;68.10;;;;;;4942137;28;20123;-64
2021/04/17 07:03:12;;;;;;;14.05;3.70;;;11.80;68.20;;;;;;4941636;28;20039;-64
2021/04/17 07:05:38;;;;;;;13.98;3.30;;;12.00;67.40;;;;;;4941271;28;20154;-64
2021/04/17 07:08:04;;;;;;;15.60;3.90;;;12.10;66.80;;;;;;4942094;28;20122;-64
2021/04/17 07:10:30;;;;;;;19.95;4.78;;;12.40;66.30;;;;;;4954463;28;20091;-64
2021/04/17 07:13:13;;;;;;;19.67;3.75;;;12.60;65.60;;;;;;4939153;28;20518;-64
2021/04/17 07:15:41;;;;;;;15.25;3.60;;;12.80;64.60;;;;;;4940821;28;20550;-64
2021/04/17 07:18:25;;;;;;;13.90;3.92;;;12.80;63.70;;;;;;4954816;28;20043;-64
2021/04/17 07:20:52;;;;;;;14.40;3.38;;;12.70;63.30;;;;;;4942074;28;20031;-64
2021/04/17 07:23:30;;;;;;;15.13;3.17;;;12.70;63.20;;;;;;4941275;28;20114;-64
2021/04/17 07:26:12;;;;;;;10.82;3.72;;;12.60;62.70;;;;;;4940918;28;20043;-64
2021/04/17 07:28:40;;;;;;;17.65;3.83;;;12.60;63.30;;;;;;4954483;28;20047;-64
2021/04/17 07:31:13;;;;;;;10.82;3.63;;;12.50;63.20;;;;;;4942162;28;20193;-64
2021/04/17 07:33:38;;;;;;;15.73;4.67;;;12.40;62.90;;;;;;4939471;28;20063;-63
2021/04/17 07:36:04;;;;;;;15.45;3.67;;;12.50;62.90;;;;;;4953313;28;20039;-63
2021/04/17 07:38:35;;;;;;;12.63;3.13;;;12.70;62.90;;;;;;4939644;28;20088;-63
2021/04/17 07:41:13;;;;;;;12.00;3.00;;;12.90;62.60;;;;;;4942377;28;20082;-63
2021/04/17 07:43:55;;;;;;;14.43;3.42;;;13.10;62.00;;;;;;4940201;28;20042;-63
2021/04/17 07:46:30;;;;;;;19.52;3.65;;;13.20;61.80;;;;;;4940254;28;20098;-63
2021/04/17 07:49:21;;;;;;;15.45;3.70;;;13.20;61.00;;;;;;4940484;28;20036;-63
2021/04/17 07:52:11;;;;;;;15.18;3.65;;;13.20;60.30;;;;;;4941113;28;20051;-63
2021/04/17 07:54:52;;;;;;;17.50;3.78;;;13.10;60.20;;;;;;4940278;28;20079;-63
2021/04/17 07:57:17;;;;;;;13.45;3.60;;;12.90;60.60;;;;;;4954330;28;20034;-62
2021/04/17 07:59:44;;;;;;;14.93;3.67;;;12.90;61.00;;;;;;4938922;28;20043;-62
2021/04/17 08:02:12;;;;;;;11.00;3.55;;;12.90;60.60;;;;;;4940073;28;20059;-62
2021/04/17 08:04:39;;;;;;;11.75;3.67;;;13.10;60.90;;;;;;4940682;28;20759;-64
2021/04/17 08:07:06;;;;;;;10.18;3.50;;;13.20;60.20;;;;;;4941050;28;20043;-62
2021/04/17 08:09:32;;;;;;;12.95;3.63;;;13.20;59.50;;;;;;4940829;28;20063;-67
2021/04/17 08:12:00;;;;;;;10.65;3.20;;;13.20;59.10;;;;;;4940657;28;20082;-68
2021/04/17 08:14:28;;;;;;;9.75;2.95;;;13.30;58.70;;;;;;4943540;28;20142;-67
2021/04/17 08:16:55;;;;;;;10.88;3.40;;;13.40;58.90;;;;;;4939899;28;20475;-67
2021/04/17 08:19:21;;;;;;;12.02;3.40;;;13.40;57.90;;;;;;4941111;28;20047;-66
2021/04/17 08:21:49;;;;;;;15.27;3.35;;;13.40;57.50;;;;;;4940276;28;20043;-65
2021/04/17 08:24:24;;;;;;;16.40;3.65;;;13.50;57.40;;;;;;4942085;28;20040;-67
2021/04/17 08:26:55;;;;;;;13.73;2.97;;;13.60;57.00;;;;;;4940096;28;20027;-65
2021/04/17 08:29:45;;;;;;;9.93;3.13;;;13.70;57.40;;;;;;4940894;28;20035;-65
2021/04/17 08:32:31;;;;;;;10.95;2.75;;;13.80;56.50;;;;;;4940357;28;20059;-65
2021/04/17 08:35:36;;;;;;;10.65;2.90;;;13.90;56.30;;;;;;4940145;28;20039;-67
2021/04/17 08:38:04;;;;;;;10.70;3.22;;;14.00;56.40;;;;;;4942549;28;20592;-65
2021/04/17 08:40:35;;;;;;;8.13;3.00;;;14.00;56.30;;;;;;4940575;28;20149;-65
2021/04/17 08:43:04;;;;;;;10.98;3.42;;;14.10;55.60;;;;;;4940286;28;20068;-65
2021/04/17 08:45:31;;;;;;;10.35;3.05;;;14.10;55.00;;;;;;4940363;28;20043;-65
2021/04/17 08:47:59;;;;;;;11.50;3.13;;;14.00;55.20;;;;;;4939300;28;20047;-61
2021/04/17 08:50:37;;;;;;;13.32;3.15;;;14.10;54.60;;;;;;4940294;28;20071;-65
2021/04/17 08:53:17;;;;;;;11.95;3.30;;;14.10;53.60;;;;;;4939289;28;20040;-66
2021/04/17 08:55:48;;;;;;;12.32;3.47;;;14.10;53.60;;;;;;4942975;28;20039;-66
2021/04/17 08:58:24;;;;;;;12.07;2.78;;;14.10;53.00;;;;;;4944472;28;20039;-65
2021/04/17 09:00:53;;;;;;;5.65;2.33;;;14.10;53.10;;;;;;4940296;28;20106;-67
2021/04/17 09:03:39;;;;;;;14.13;2.90;;;14.10;52.50;;;;;;4943271;28;20130;-67
2021/04/17 09:06:07;;;;;;;12.75;3.33;;;14.10;52.10;;;;;;4942807;28;20039;-62
2021/04/17 09:08:37;;;;;;;10.65;3.47;;;14.00;52.30;;;;;;4944059;28;20032;-62
2021/04/17 09:11:32;;;;;;;9.00;2.50;;;14.00;52.30;;;;;;4943357;28;20039;-61
2021/04/17 09:13:59;;;;;;;10.45;3.47;;;14.10;52.00;;;;;;4944783;28;20603;-61
2021/04/17 09:16:38;;;;;;;6.63;2.35;;;14.10;52.20;;;;;;4943402;28;20062;-61
2021/04/17 09:19:04;;;;;;;10.05;3.20;;;14.20;51.70;;;;;;4943891;28;20043;-61
2021/04/17 09:21:30;;;;;;;6.93;2.88;;;14.20;52.40;;;;;;4943660;28;20035;-61
2021/04/17 09:23:56;;;;;;;11.63;3.35;;;14.40;52.60;;;;;;4943010;28;20043;-61
2021/04/17 09:26:31;;;;;;;8.93;2.97;;;14.50;52.50;;;;;;4942564;28;20965;-62
2021/04/17 09:28:57;;;;;;;12.88;3.58;;;14.70;52.60;;;;;;4943280;28;20086;-62
2021/04/17 09:31:25;;;;;;;14.40;3.58;;;14.80;52.10;;;;;;4938712;28;20131;-62
2021/04/17 09:34:08;;;;;;;12.57;3.13;;;14.90;52.00;;;;;;4943100;28;20098;-62
2021/04/17 09:36:35;;;;;;;7.32;2.85;;;14.90;51.50;;;;;;4943679;28;20050;-65
2021/04/17 09:39:01;;;;;;;11.98;3.13;;;14.80;53.50;;;;;;4943103;28;22302;-63
2021/04/17 09:41:50;;;;;;;9.43;3.63;;;14.90;52.60;;;;;;4940711;28;20098;-63
2021/04/17 09:44:16;;;;;;;10.32;3.40;;;15.00;51.30;;;;;;4943748;28;20185;-63
2021/04/17 09:46:42;;;;;;;7.50;2.97;;;14.90;52.00;;;;;;4942750;28;20039;-62
2021/04/17 09:49:08;;;;;;;7.25;2.70;;;14.80;51.30;;;;;;4942976;28;20043;-62
2021/04/17 09:51:34;;;;;;;12.43;4.10;;;14.70;51.10;;;;;;4944367;28;20039;-62
2021/04/17 09:54:07;;;;;;;6.80;2.72;;;14.60;51.70;;;;;;4942894;28;20105;-62
2021/04/17 09:56:42;;;;;;;8.77;2.83;;;14.60;51.10;;;;;;4942878;28;20031;-61
2021/04/17 09:59:11;;;;;;;7.47;2.50;;;14.40;50.90;;;;;;4942843;28;20047;-62
2021/04/17 10:01:37;;;;;;;10.15;2.92;;;14.30;49.90;;;;;;4954986;28;20051;-62
2021/04/17 10:04:04;;;;;;;10.50;2.95;;;14.20;50.30;;;;;;4940663;28;20046;-63
2021/04/17 10:06:37;;;;;;;11.95;2.85;;;14.20;53.20;;;;;;4942698;28;20039;-62
2021/04/17 10:09:11;;;;;;;12.00;3.00;;;14.50;53.50;;;;;;4943963;28;20054;-64
2021/04/17 10:11:43;;;;;;;8.75;2.70;;;14.60;51.90;;;;;;4943609;28;20083;-62
2021/04/17 10:14:10;;;;;;;7.82;2.58;;;14.60;51.00;;;;;;4941823;28;20400;-62
2021/04/17 10:16:39;;;;;;;9.55;3.33;;;14.40;50.40;;;;;;4942027;28;20477;-63
2021/04/17 10:19:09;;;;;;;9.35;2.85;;;14.30;50.70;;;;;;4940475;28;20071;-65
2021/04/17 10:21:36;;;;;;;15.63;3.15;;;14.30;50.50;;;;;;4943191;28;20028;-62
2021/04/17 10:24:24;;;;;;;9.68;3.83;;;14.30;52.80;;;;;;4938609;28;20047;-62
2021/04/17 10:27:23;;;;;;;8.45;2.70;;;14.40;53.70;;;;;;4942170;28;20036;-61
2021/04/17 10:29:52;;;;;;;9.80;2.28;;;14.60;52.60;;;;;;4943283;28;20051;-63
2021/04/17 10:32:28;;;;;;;8.57;2.35;;;14.80;53.20;;;;;;4941540;28;20035;-63
2021/04/17 10:35:15;;;;;;;11.88;2.47;;;15.00;53.40;;;;;;4941807;28;20047;-63
2021/04/17 10:37:43;;;;;;;7.40;2.35;;;15.20;53.60;;;;;;4942076;28;20475;-63
2021/04/17 10:40:14;;;;;;;9.07;3.22;;;15.20;51.60;;;;;;4941180;28;20098;-63
2021/04/17 10:42:52;;;;;;;8.55;2.67;;;15.30;51.40;;;;;;4940881;28;20122;-62
2021/04/17 10:45:28;;;;;;;10.40;2.65;;;15.50;54.50;;;;;;4940891;28;20047;-62
2021/04/17 10:48:18;;;;;;;7.80;2.70;;;15.70;54.40;;;;;;4940740;28;20047;-62
2021/04/17 10:51:08;;;;;;;8.05;2.28;;;15.90;54.30;;;;;;4955839;28;20610;-62
2021/04/17 10:53:39;;;;;;;8.38;2.80;;;15.90;51.80;;;;;;4938500;28;20143;-63
2021/04/17 10:56:16;;;;;;;7.93;2.42;;;15.80;51.10;;;;;;4941966;28;20508;-63
2021/04/17 10:58:43;;;;;;;8.32;2.63;;;15.60;51.50;;;;;;4957195;28;20039;-63
2021/04/17 11:01:24;;;;;;;8.27;1.80;;;15.40;51.60;;;;;;4942360;28;20076;-63
2021/04/17 11:03:58;;;;;;;12.30;2.30;;;15.40;51.50;;;;;;4941953;28;20043;-63
2021/04/17 11:06:26;;;;;;;5.72;2.08;;;15.30;51.40;;;;;;4941444;28;20070;-64
2021/04/17 11:09:07;;;;;;;9.02;2.58;;;15.20;50.90;;;;;;4942406;28;20419;-63
2021/04/17 11:11:33;;;;;;;8.20;2.35;;;15.10;51.00;;;;;;4941588;28;20032;-64
2021/04/17 11:14:02;;;;;;;6.50;2.58;;;15.00;51.30;;;;;;4942571;28;20047;-63
2021/04/17 11:16:36;;;;;;;8.80;2.30;;;15.00;51.40;;;;;;4942073;28;20519;-63
2021/04/17 11:19:03;;;;;;;10.68;3.05;;;15.00;51.40;;;;;;4942499;28;20491;-64
2021/04/17 11:21:29;;;;;;;7.68;2.25;;;15.00;51.70;;;;;;4942641;28;20093;-63
2021/04/17 11:24:02;;;;;;;5.32;2.00;;;14.90;53.70;;;;;;4940718;28;20043;-64
2021/04/17 11:26:29;;;;;;;;;;;14.90;54.20;;;;;;4940918;28;20381;-66
2021/04/17 11:29:01;;;;;;;7.38;2.38;;;14.80;52.10;;;;;;4942602;28;19964;-63
2021/04/17 11:31:30;;;;;;;10.68;2.28;;;14.80;53.80;;;;;;4956767;28;20043;-62
2021/04/17 11:33:58;;;;;;;8.27;1.95;;;14.90;53.90;;;;;;4940279;28;20043;-65
2021/04/17 11:36:26;;;;;;;7.40;1.70;;;14.90;54.00;;;;;;4955438;28;20177;-63
2021/04/17 11:38:52;;;;;;;13.02;2.70;;;14.90;53.10;;;;;;4956960;28;20224;-64
2021/04/17 11:41:18;;;;;;;7.18;2.05;;;14.90;52.30;;;;;;4957163;28;20514;-64
2021/04/17 11:43:44;;;;;;;8.68;2.75;;;14.80;52.20;;;;;;4955332;28;20058;-64
2021/04/17 11:46:11;;;;;;;6.47;1.90;;;14.80;52.30;;;;;;4957148;28;20062;-63
2021/04/17 11:48:39;;;;;;;7.75;2.65;;;14.80;52.60;;;;;;4958145;28;20058;-63
2021/04/17 11:51:06;;;;;;;9.07;2.00;;;14.80;51.70;;;;;;4955675;28;20077;-64
2021/04/17 11:53:32;;;;;;;8.82;2.20;;;14.80;51.10;;;;;;4934332;28;20049;-65
2021/04/17 11:55:58;;;;;;;6.55;2.25;;;14.70;51.30;;;;;;4955719;28;20059;-64
2021/04/17 11:58:25;;;;;;;8.75;2.25;;;14.50;51.00;;;;;;4957174;28;20449;-64
2021/04/17 12:00:51;;;;;;;10.10;1.85;;;14.30;52.30;;;;;;4934298;28;20038;-65
2021/04/17 12:03:25;;;;;;;7.13;1.90;;;14.20;52.40;;;;;;4957640;28;20064;-64
2021/04/17 12:05:53;;;;;;;5.70;1.85;;;14.10;52.40;;;;;;4957072;28;20043;-64
2021/04/17 12:08:21;;;;;;;8.52;1.92;;;14.10;52.70;;;;;;4943156;28;20125;-63
2021/04/17 12:10:48;;;;;;;7.03;1.80;;;14.10;52.00;;;;;;4939853;28;20118;-64
2021/04/17 12:13:13;;;;;;;7.28;2.05;;;14.10;52.20;;;;;;4940517;28;20046;-65
2021/04/17 12:15:40;;;;;;;6.25;1.38;;;14.10;51.90;;;;;;4938058;28;20043;-64
2021/04/17 12:18:07;;;;;;;6.60;2.45;;;14.20;51.30;;;;;;4940156;28;20109;-64
2021/04/17 12:20:33;;;;;;;3.85;1.77;;;14.10;51.50;;;;;;4941693;28;20483;-64
2021/04/17 12:22:59;;;;;;;7.45;2.35;;;14.10;50.90;;;;;;4938506;28;20045;-63
2021/04/17 12:25:25;;;;;;;9.25;2.20;;;14.10;51.10;;;;;;4936436;28;20407;-64
2021/04/17 12:27:51;;;;;;;5.70;2.17;;;14.00;50.90;;;;;;4940785;28;20066;-65
2021/04/17 12:30:19;;;;;;;9.27;1.80;;;14.00;51.00;;;;;;4940311;28;20058;-62
2021/04/17 12:32:45;;;;;;;9.73;4.25;;;13.90;50.30;;;;;;4938392;28;20130;-62
2021/04/17 12:35:14;;;;;;;8.93;1.92;;;13.70;51.30;;;;;;4940572;28;20050;-64
2021/04/17 12:37:40;;;;;;;4.60;1.40;;;13.60;51.20;;;;;;4954987;28;20035;-63
2021/04/17 12:40:07;;;;;;;8.00;1.85;;;13.50;50.80;;;;;;4939971;28;20047;-62
2021/04/17 12:42:33;;;;;;;5.22;1.40;;;13.40;50.80;;;;;;4939202;28;20050;-63
2021/04/17 12:44:59;;;;;;;5.93;1.65;;;13.50;51.30;;;;;;4940757;28;20051;-64
2021/04/17 12:47:25;;;;;;;7.07;2.13;;;13.60;51.00;;;;;;4941553;28;20054;-63
2021/04/17 12:49:51;;;;;;;6.22;2.00;;;13.70;50.70;;;;;;4941094;28;20390;-63
2021/04/17 12:52:18;;;;;;;3.75;2.03;;;13.70;50.80;;;;;;4935390;28;20047;-62